createdAt,value
2022-08-10T00:00:59.427Z,20.21
2022-08-10T00:06:04.555Z,20.15
2022-08-10T00:11:15.508Z,20.12
2022-08-10T00:16:20.924Z,20.05
2022-08-10T00:21:27.113Z,19.98
2022-08-10T00:27:50.160Z,19.91
2022-08-10T00:31:55.941Z,19.89
2022-08-10T00:37:04.004Z,19.78
2022-08-10T00:42:08.483Z,19.72
2022-08-10T00:47:22.616Z,19.67
2022-08-10T00:52:40.235Z,19.61
2022-08-10T00:57:44.186Z,19.51
2022-08-10T01:02:48.019Z,19.40
2022-08-10T01:08:08.976Z,19.34
2022-08-10T01:13:21.243Z,19.24
2022-08-10T01:18:38.140Z,19.20
2022-08-10T01:24:08.619Z,19.14
2022-08-10T01:29:26.185Z,19.01
2022-08-10T01:34:35.141Z,18.99
2022-08-10T01:39:43.002Z,18.94
2022-08-10T01:44:53.315Z,18.88
2022-08-10T01:50:05.695Z,18.77
2022-08-10T01:55:11.793Z,18.70
2022-08-10T02:00:17.881Z,18.67
2022-08-10T02:05:25.291Z,18.65
2022-08-10T02:10:30.707Z,18.59
2022-08-10T02:15:39.908Z,18.48
2022-08-10T02:21:07.891Z,18.43
2022-08-10T02:26:13.812Z,18.44
2022-08-10T02:31:24.009Z,18.39
2022-08-10T02:36:30.438Z,18.26
2022-08-10T02:45:15.101Z,18.26
2022-08-10T02:47:11.364Z,18.20
2022-08-10T02:52:20.442Z,18.12
2022-08-10T02:57:29.370Z,18.06
2022-08-10T03:02:38.073Z,18.03
2022-08-10T03:07:47.714Z,17.99
2022-08-10T03:12:55.441Z,17.93
2022-08-10T03:18:02.221Z,17.86
2022-08-10T03:23:10.427Z,17.78
2022-08-10T03:28:18.767Z,17.70
2022-08-10T03:33:30.403Z,17.61
2022-08-10T03:38:34.527Z,17.55
2022-08-10T03:43:39.194Z,17.50
2022-08-10T03:48:49.442Z,17.44
2022-08-10T03:54:04.508Z,17.39
2022-08-10T03:59:13.582Z,17.36
2022-08-10T04:04:23.657Z,17.30
2022-08-10T04:09:53.921Z,17.30
2022-08-10T04:14:54.044Z,17.26
2022-08-10T04:20:01.805Z,17.20
2022-08-10T04:25:07.655Z,17.14
2022-08-10T04:30:12.150Z,17.15
2022-08-10T04:35:20.173Z,17.14
2022-08-10T04:40:30.513Z,17.11
2022-08-10T04:45:49.199Z,17.12
2022-08-10T04:50:56.807Z,17.10
2022-08-10T04:56:03.523Z,17.09
2022-08-10T05:01:07.382Z,17.06
2022-08-10T05:06:12.648Z,17.07
2022-08-10T05:11:24.153Z,17.05
2022-08-10T05:16:32.152Z,17.04
2022-08-10T05:22:03.783Z,16.97
2022-08-10T05:27:10.258Z,16.95
2022-08-10T05:32:14.631Z,16.97
2022-08-10T05:38:12.263Z,17.03
2022-08-10T05:42:44.582Z,17.07
2022-08-10T05:48:41.955Z,17.19
2022-08-10T05:54:00.957Z,17.23
2022-08-10T05:58:37.938Z,17.35
2022-08-10T06:03:51.638Z,17.41
2022-08-10T06:08:59.078Z,17.47
2022-08-10T06:14:22.940Z,17.52
2022-08-10T06:19:33.225Z,17.62
2022-08-10T06:25:04.594Z,17.70
2022-08-10T06:30:07.891Z,17.80
2022-08-10T06:35:28.705Z,17.90
2022-08-10T06:40:39.881Z,18.05
2022-08-10T06:46:08.119Z,18.17
2022-08-10T06:51:18.189Z,18.33
2022-08-10T06:56:37.423Z,18.49
2022-08-10T07:01:51.337Z,18.65
2022-08-10T07:06:57.909Z,18.80
2022-08-10T07:12:08.319Z,18.94
2022-08-10T07:17:15.665Z,19.04
2022-08-10T07:23:27.173Z,19.21
2022-08-10T07:28:00.486Z,19.37
2022-08-10T07:33:07.198Z,19.57
2022-08-10T07:38:17.125Z,19.73
2022-08-10T07:43:26.196Z,19.90
2022-08-10T07:48:32.245Z,20.08
2022-08-10T07:53:39.956Z,20.27
2022-08-10T07:58:51.517Z,20.41
2022-08-10T08:04:04.970Z,20.54
2022-08-10T08:09:14.355Z,20.68
2022-08-10T08:14:22.085Z,20.87
2022-08-10T08:19:27.671Z,21.08
2022-08-10T08:24:36.370Z,21.35
2022-08-10T08:29:44.160Z,21.61
2022-08-10T08:34:50.282Z,21.87
2022-08-10T08:39:56.093Z,22.14
2022-08-10T08:45:15.725Z,22.39
2022-08-10T08:50:32.563Z,22.60
2022-08-10T08:55:50.199Z,22.84
2022-08-10T09:01:24.537Z,23.06
2022-08-10T09:07:59.922Z,23.32
2022-08-10T09:12:52.860Z,23.63
2022-08-10T09:18:12.087Z,23.88
2022-08-10T09:24:02.042Z,24.12
2022-08-10T09:29:13.025Z,24.34
2022-08-10T09:36:24.399Z,24.59
2022-08-10T09:40:56.693Z,24.76
2022-08-10T09:45:24.884Z,25.00
2022-08-10T09:51:16.326Z,25.22
2022-08-10T09:56:21.401Z,25.46
2022-08-10T10:02:00.408Z,25.78
2022-08-10T10:07:02.198Z,26.15
2022-08-10T10:12:20.222Z,26.68
2022-08-10T10:17:31.608Z,27.37
2022-08-10T10:22:55.629Z,28.18
2022-08-10T10:28:14.228Z,29.13
2022-08-10T10:33:26.484Z,29.80
2022-08-10T10:38:37.360Z,30.31
2022-08-10T10:43:48.744Z,31.05
2022-08-10T10:49:01.734Z,31.54
2022-08-10T10:54:11.044Z,31.96
2022-08-10T10:59:53.698Z,32.53
2022-08-10T11:04:59.069Z,33.06
2022-08-10T11:10:33.182Z,33.56
2022-08-10T11:15:47.560Z,33.67
2022-08-10T11:20:59.098Z,34.34
2022-08-10T11:26:11.670Z,34.77
2022-08-10T11:31:23.240Z,35.15
2022-08-10T11:36:32.336Z,35.62
2022-08-10T11:42:08.838Z,35.83
2022-08-10T11:47:16.245Z,35.95
2022-08-10T11:52:27.970Z,35.42
2022-08-10T11:57:54.031Z,35.18
2022-08-10T12:03:00.677Z,34.72
2022-08-10T12:10:03.077Z,34.35
2022-08-10T12:13:37.615Z,34.11
2022-08-10T12:18:47.006Z,33.78
2022-08-10T12:24:02.364Z,33.59
2022-08-10T12:29:15.628Z,33.42
2022-08-10T12:34:23.564Z,33.33
2022-08-10T12:39:30.896Z,33.16
2022-08-10T12:44:47.932Z,33.14
2022-08-10T12:50:29.880Z,32.95
2022-08-10T12:55:24.046Z,33.17
2022-08-10T13:00:33.633Z,33.21
2022-08-10T13:06:00.341Z,33.19
2022-08-10T13:11:20.199Z,33.26
2022-08-10T13:16:33.603Z,33.29
2022-08-10T13:21:39.793Z,33.24
2022-08-10T13:27:24.384Z,33.37
2022-08-10T13:32:20.626Z,33.41
2022-08-10T13:37:28.567Z,33.56
2022-08-10T13:42:36.820Z,33.52
2022-08-10T13:47:49.621Z,33.48
2022-08-10T13:52:56.702Z,33.47
2022-08-10T13:58:02.581Z,33.61
2022-08-10T14:03:11.698Z,33.61
2022-08-10T14:08:18.978Z,33.50
2022-08-10T14:13:24.473Z,33.46
2022-08-10T14:18:35.046Z,33.53
2022-08-10T14:23:52.839Z,33.49
2022-08-10T14:29:03.137Z,33.55
2022-08-10T14:34:09.827Z,33.47
2022-08-10T14:39:20.724Z,33.41
2022-08-10T14:44:25.881Z,33.58
2022-08-10T14:49:58.297Z,33.62
2022-08-10T14:54:57.992Z,33.61
2022-08-10T15:00:24.191Z,33.55
2022-08-10T15:05:39.720Z,33.58
2022-08-10T15:10:51.009Z,33.62
2022-08-10T15:16:12.065Z,33.48
2022-08-10T15:21:22.891Z,33.45
2022-08-10T15:26:30.610Z,33.46
2022-08-10T15:31:56.054Z,33.33
2022-08-10T15:37:40.535Z,33.20
2022-08-10T15:42:49.267Z,32.85
2022-08-10T15:48:03.121Z,32.96
2022-08-10T15:53:17.042Z,32.99
2022-08-10T15:58:37.703Z,32.74
2022-08-10T16:03:54.408Z,32.67
2022-08-10T16:10:26.306Z,32.62
2022-08-10T16:14:36.751Z,32.59
2022-08-10T16:19:49.173Z,32.53
2022-08-10T16:24:56.785Z,32.34
2022-08-10T16:30:05.187Z,32.28
2022-08-10T16:35:11.782Z,32.03
2022-08-10T16:40:20.376Z,31.85
2022-08-10T16:45:31.978Z,31.73
2022-08-10T16:50:41.705Z,31.63
2022-08-10T16:55:51.024Z,31.61
2022-08-10T17:01:01.666Z,31.51
2022-08-10T17:06:10.660Z,31.33
2022-08-10T17:11:19.537Z,31.24
2022-08-10T17:16:24.323Z,31.05
2022-08-10T17:21:32.416Z,30.85
2022-08-10T17:26:38.896Z,30.81
2022-08-10T17:31:54.029Z,30.73
2022-08-10T17:37:01.652Z,30.53
2022-08-10T17:42:07.808Z,30.43
2022-08-10T17:47:12.696Z,30.27
2022-08-10T17:52:22.441Z,30.17
2022-08-10T17:57:29.788Z,30.02
2022-08-10T18:02:37.680Z,29.88
2022-08-10T18:07:46.497Z,29.69
2022-08-10T18:12:55.556Z,29.58
2022-08-10T18:18:01.869Z,29.48
2022-08-10T18:23:08.139Z,29.29
2022-08-10T18:28:19.080Z,29.19
2022-08-10T18:33:27.820Z,29.04
2022-08-10T18:38:34.759Z,28.89
2022-08-10T18:44:06.157Z,28.73
2022-08-10T18:49:13.679Z,28.54
2022-08-10T18:54:39.624Z,28.37
2022-08-10T19:00:07.870Z,28.18
2022-08-10T19:05:31.190Z,27.92
2022-08-10T19:10:41.017Z,27.74
2022-08-10T19:15:56.102Z,27.62
2022-08-10T19:21:13.227Z,27.43
2022-08-10T19:26:44.646Z,27.28
2022-08-10T19:31:59.940Z,27.13
2022-08-10T19:37:15.539Z,27.00
2022-08-10T19:42:31.602Z,26.87
2022-08-10T19:47:41.920Z,26.74
2022-08-10T19:52:55.080Z,26.58
2022-08-10T19:58:03.984Z,26.40
2022-08-10T20:03:21.974Z,26.24
2022-08-10T20:08:31.011Z,26.06
2022-08-10T20:13:50.389Z,25.94
2022-08-10T20:19:02.331Z,25.87
2022-08-10T20:24:11.153Z,25.69
2022-08-10T20:29:57.635Z,25.55
2022-08-10T20:34:46.455Z,25.48
2022-08-10T20:40:07.286Z,25.37
2022-08-10T20:45:21.690Z,25.24
2022-08-10T20:50:35.534Z,25.14
2022-08-10T20:55:53.643Z,25.03
2022-08-10T21:01:16.923Z,24.83
2022-08-10T21:06:43.397Z,24.63
2022-08-10T21:12:04.417Z,24.49
2022-08-10T21:17:22.673Z,24.34
2022-08-10T21:22:31.674Z,24.22
2022-08-10T21:28:09.945Z,24.08
2022-08-10T21:33:17.352Z,23.90
2022-08-10T21:38:28.165Z,23.88
2022-08-10T21:44:05.631Z,23.75
2022-08-10T21:49:36.887Z,23.62
2022-08-10T21:55:06.420Z,23.65
2022-08-10T22:00:32.669Z,23.62
2022-08-10T22:05:56.329Z,23.62
2022-08-10T22:11:21.510Z,23.54
2022-08-10T22:16:58.267Z,23.50
2022-08-10T22:22:28.184Z,23.41
2022-08-10T22:27:55.272Z,23.30
2022-08-10T22:33:29.264Z,23.14
2022-08-10T22:39:05.723Z,23.02
2022-08-10T22:44:30.843Z,22.94
2022-08-10T22:49:34.229Z,22.86
2022-08-10T22:55:03.759Z,22.74
2022-08-10T23:00:15.058Z,22.68
2022-08-10T23:05:29.218Z,22.60
2022-08-10T23:10:41.627Z,22.52
2022-08-10T23:16:12.382Z,22.47
2022-08-10T23:21:18.488Z,22.43
2022-08-10T23:26:27.040Z,22.42
2022-08-10T23:32:00.613Z,22.33
2022-08-10T23:36:59.509Z,22.33
2022-08-10T23:42:07.969Z,22.28
2022-08-10T23:47:16.003Z,22.23
2022-08-10T23:52:22.124Z,22.12
2022-08-10T23:57:28.980Z,22.00
